sensor_id;sensor_type;location;lat;lon;timestamp;P1;durP1;ratioP1;P2;durP2;ratioP2
72132;SDS011;60008;50.826;6.896;2022-12-01T00:02:27;13.52;;;5.68;;
72132;SDS011;60008;50.826;6.896;2022-12-01T00:05:13;15.77;;;6.60;;
72132;SDS011;60008;50.826;6.896;2022-12-01T00:07:58;15.68;;;6.38;;
72132;SDS011;60008;50.826;6.896;2022-12-01T00:10:43;12.87;;;6.17;;
72132;SDS011;60008;50.826;6.896;2022-12-01T00:13:28;20.02;;;6.65;;
72132;SDS011;60008;50.826;6.896;2022-12-01T00:16:15;17.80;;;6.38;;
72132;SDS011;60008;50.826;6.896;2022-12-01T00:19:00;15.38;;;6.32;;
72132;SDS011;60008;50.826;6.896;2022-12-01T00:21:45;12.35;;;6.10;;
72132;SDS011;60008;50.826;6.896;2022-12-01T00:24:31;14.77;;;5.73;;
72132;SDS011;60008;50.826;6.896;2022-12-01T00:27:16;13.40;;;5.63;;
72132;SDS011;60008;50.826;6.896;2022-12-01T00:30:01;13.48;;;5.57;;
72132;SDS011;60008;50.826;6.896;2022-12-01T00:32:46;14.10;;;5.80;;
72132;SDS011;60008;50.826;6.896;2022-12-01T00:35:32;14.25;;;5.60;;
72132;SDS011;60008;50.826;6.896;2022-12-01T00:38:17;14.57;;;5.43;;
72132;SDS011;60008;50.826;6.896;2022-12-01T00:41:02;13.90;;;6.32;;
72132;SDS011;60008;50.826;6.896;2022-12-01T00:43:48;12.35;;;5.25;;
72132;SDS011;60008;50.826;6.896;2022-12-01T00:46:34;13.98;;;5.57;;
72132;SDS011;60008;50.826;6.896;2022-12-01T00:49:19;11.57;;;5.30;;
72132;SDS011;60008;50.826;6.896;2022-12-01T00:52:04;13.93;;;5.70;;
72132;SDS011;60008;50.826;6.896;2022-12-01T00:54:49;12.25;;;6.10;;
72132;SDS011;60008;50.826;6.896;2022-12-01T00:57:34;12.18;;;5.20;;
72132;SDS011;60008;50.826;6.896;2022-12-01T01:00:19;14.23;;;5.70;;
72132;SDS011;60008;50.826;6.896;2022-12-01T01:03:05;11.60;;;5.15;;
72132;SDS011;60008;50.826;6.896;2022-12-01T01:05:51;12.63;;;5.10;;
72132;SDS011;60008;50.826;6.896;2022-12-01T01:08:36;11.88;;;4.93;;
72132;SDS011;60008;50.826;6.896;2022-12-01T01:11:22;11.20;;;4.95;;
72132;SDS011;60008;50.826;6.896;2022-12-01T01:14:07;13.23;;;5.72;;
72132;SDS011;60008;50.826;6.896;2022-12-01T01:16:53;12.98;;;5.65;;
72132;SDS011;60008;50.826;6.896;2022-12-01T01:19:39;11.87;;;5.23;;
72132;SDS011;60008;50.826;6.896;2022-12-01T01:22:24;12.55;;;5.30;;
72132;SDS011;60008;50.826;6.896;2022-12-01T01:25:09;14.30;;;5.60;;
72132;SDS011;60008;50.826;6.896;2022-12-01T01:27:54;12.70;;;4.97;;
72132;SDS011;60008;50.826;6.896;2022-12-01T01:30:40;10.35;;;4.72;;
72132;SDS011;60008;50.826;6.896;2022-12-01T01:33:25;12.23;;;5.07;;
72132;SDS011;60008;50.826;6.896;2022-12-01T01:36:10;12.57;;;5.00;;
72132;SDS011;60008;50.826;6.896;2022-12-01T01:38:55;12.52;;;5.22;;
72132;SDS011;60008;50.826;6.896;2022-12-01T01:41:40;11.23;;;5.15;;
72132;SDS011;60008;50.826;6.896;2022-12-01T01:44:43;11.55;;;5.10;;
72132;SDS011;60008;50.826;6.896;2022-12-01T01:47:34;11.77;;;4.60;;
72132;SDS011;60008;50.826;6.896;2022-12-01T01:50:21;12.38;;;5.25;;
72132;SDS011;60008;50.826;6.896;2022-12-01T01:53:09;13.27;;;5.10;;
72132;SDS011;60008;50.826;6.896;2022-12-01T01:55:57;13.40;;;5.68;;
72132;SDS011;60008;50.826;6.896;2022-12-01T01:58:44;11.05;;;5.03;;
72132;SDS011;60008;50.826;6.896;2022-12-01T02:01:29;15.73;;;5.40;;
72132;SDS011;60008;50.826;6.896;2022-12-01T02:04:15;13.55;;;5.57;;
72132;SDS011;60008;50.826;6.896;2022-12-01T02:07:00;14.55;;;5.82;;
72132;SDS011;60008;50.826;6.896;2022-12-01T02:09:45;13.52;;;5.70;;
72132;SDS011;60008;50.826;6.896;2022-12-01T02:12:36;13.93;;;5.90;;
72132;SDS011;60008;50.826;6.896;2022-12-01T02:18:27;12.93;;;5.80;;
72132;SDS011;60008;50.826;6.896;2022-12-01T02:21:31;14.60;;;5.78;;
72132;SDS011;60008;50.826;6.896;2022-12-01T02:30:49;14.67;;;5.77;;
72132;SDS011;60008;50.826;6.896;2022-12-01T02:33:50;15.75;;;6.40;;
72132;SDS011;60008;50.826;6.896;2022-12-01T02:37:00;17.73;;;7.07;;
72132;SDS011;60008;50.826;6.896;2022-12-01T02:39:57;18.20;;;6.40;;
72132;SDS011;60008;50.826;6.896;2022-12-01T02:42:56;16.25;;;6.35;;
72132;SDS011;60008;50.826;6.896;2022-12-01T02:46:06;13.80;;;6.33;;
72132;SDS011;60008;50.826;6.896;2022-12-01T02:48:57;19.80;;;6.68;;
72132;SDS011;60008;50.826;6.896;2022-12-01T02:51:45;18.85;;;6.55;;
72132;SDS011;60008;50.826;6.896;2022-12-01T02:54:32;20.80;;;7.53;;
72132;SDS011;60008;50.826;6.896;2022-12-01T02:57:18;17.83;;;7.10;;
72132;SDS011;60008;50.826;6.896;2022-12-01T03:00:03;21.70;;;7.70;;
72132;SDS011;60008;50.826;6.896;2022-12-01T03:02:55;17.88;;;6.93;;
72132;SDS011;60008;50.826;6.896;2022-12-01T03:05:46;20.13;;;7.45;;
72132;SDS011;60008;50.826;6.896;2022-12-01T03:08:47;20.02;;;7.75;;
72132;SDS011;60008;50.826;6.896;2022-12-01T03:11:54;17.40;;;7.00;;
72132;SDS011;60008;50.826;6.896;2022-12-01T03:18:00;21.23;;;8.35;;
72132;SDS011;60008;50.826;6.896;2022-12-01T03:21:09;22.13;;;8.15;;
72132;SDS011;60008;50.826;6.896;2022-12-01T03:24:06;26.38;;;8.35;;
72132;SDS011;60008;50.826;6.896;2022-12-01T03:26:55;24.20;;;8.18;;
72132;SDS011;60008;50.826;6.896;2022-12-01T03:29:44;19.77;;;8.00;;
72132;SDS011;60008;50.826;6.896;2022-12-01T03:32:35;22.13;;;8.45;;
72132;SDS011;60008;50.826;6.896;2022-12-01T03:35:29;26.20;;;8.75;;
72132;SDS011;60008;50.826;6.896;2022-12-01T03:38:25;20.75;;;7.93;;
72132;SDS011;60008;50.826;6.896;2022-12-01T03:41:15;22.75;;;8.73;;
72132;SDS011;60008;50.826;6.896;2022-12-01T03:44:05;21.27;;;7.90;;
72132;SDS011;60008;50.826;6.896;2022-12-01T03:46:56;25.00;;;8.73;;
72132;SDS011;60008;50.826;6.896;2022-12-01T03:49:47;21.58;;;8.40;;
72132;SDS011;60008;50.826;6.896;2022-12-01T03:52:39;21.63;;;8.82;;
72132;SDS011;60008;50.826;6.896;2022-12-01T03:55:32;23.90;;;7.90;;
72132;SDS011;60008;50.826;6.896;2022-12-01T03:58:24;20.73;;;7.83;;
72132;SDS011;60008;50.826;6.896;2022-12-01T04:01:17;24.83;;;8.55;;
72132;SDS011;60008;50.826;6.896;2022-12-01T04:04:11;21.70;;;8.52;;
72132;SDS011;60008;50.826;6.896;2022-12-01T04:06:57;24.15;;;8.68;;
72132;SDS011;60008;50.826;6.896;2022-12-01T04:09:42;26.25;;;8.98;;
72132;SDS011;60008;50.826;6.896;2022-12-01T04:12:28;22.73;;;8.67;;
72132;SDS011;60008;50.826;6.896;2022-12-01T04:15:13;22.42;;;9.18;;
72132;SDS011;60008;50.826;6.896;2022-12-01T04:17:59;21.95;;;8.52;;
72132;SDS011;60008;50.826;6.896;2022-12-01T04:20:44;27.33;;;9.32;;
72132;SDS011;60008;50.826;6.896;2022-12-01T04:23:30;26.92;;;9.00;;
72132;SDS011;60008;50.826;6.896;2022-12-01T04:26:35;27.90;;;8.93;;
72132;SDS011;60008;50.826;6.896;2022-12-01T04:29:20;21.45;;;8.65;;
72132;SDS011;60008;50.826;6.896;2022-12-01T04:32:05;29.00;;;8.98;;
72132;SDS011;60008;50.826;6.896;2022-12-01T04:34:50;30.42;;;10.05;;
72132;SDS011;60008;50.826;6.896;2022-12-01T04:37:35;27.83;;;9.30;;
72132;SDS011;60008;50.826;6.896;2022-12-01T04:40:21;26.90;;;10.10;;
72132;SDS011;60008;50.826;6.896;2022-12-01T04:43:06;25.60;;;9.13;;
72132;SDS011;60008;50.826;6.896;2022-12-01T04:45:51;29.13;;;9.35;;
72132;SDS011;60008;50.826;6.896;2022-12-01T04:48:37;28.77;;;10.63;;
72132;SDS011;60008;50.826;6.896;2022-12-01T04:51:22;31.92;;;9.95;;
72132;SDS011;60008;50.826;6.896;2022-12-01T04:54:07;33.80;;;11.27;;
72132;SDS011;60008;50.826;6.896;2022-12-01T04:56:52;32.63;;;10.77;;
72132;SDS011;60008;50.826;6.896;2022-12-01T04:59:37;36.80;;;11.65;;
72132;SDS011;60008;50.826;6.896;2022-12-01T05:02:22;33.25;;;11.00;;
72132;SDS011;60008;50.826;6.896;2022-12-01T05:05:08;30.85;;;11.05;;
72132;SDS011;60008;50.826;6.896;2022-12-01T05:07:54;38.63;;;11.00;;
72132;SDS011;60008;50.826;6.896;2022-12-01T05:10:39;35.00;;;11.38;;
72132;SDS011;60008;50.826;6.896;2022-12-01T05:13:24;38.97;;;11.93;;
72132;SDS011;60008;50.826;6.896;2022-12-01T05:16:16;37.17;;;10.88;;
72132;SDS011;60008;50.826;6.896;2022-12-01T05:19:03;40.20;;;11.52;;
72132;SDS011;60008;50.826;6.896;2022-12-01T05:22:07;38.53;;;11.00;;
72132;SDS011;60008;50.826;6.896;2022-12-01T05:24:53;37.25;;;11.50;;
72132;SDS011;60008;50.826;6.896;2022-12-01T05:27:38;35.42;;;12.20;;
72132;SDS011;60008;50.826;6.896;2022-12-01T05:30:23;39.78;;;11.60;;
72132;SDS011;60008;50.826;6.896;2022-12-01T05:33:12;34.38;;;12.15;;
72132;SDS011;60008;50.826;6.896;2022-12-01T05:35:57;34.53;;;11.80;;
72132;SDS011;60008;50.826;6.896;2022-12-01T05:38:43;41.30;;;10.95;;
72132;SDS011;60008;50.826;6.896;2022-12-01T05:41:28;34.75;;;12.30;;
72132;SDS011;60008;50.826;6.896;2022-12-01T05:44:13;37.22;;;12.25;;
72132;SDS011;60008;50.826;6.896;2022-12-01T05:46:58;39.95;;;11.20;;
72132;SDS011;60008;50.826;6.896;2022-12-01T05:49:43;37.57;;;11.97;;
72132;SDS011;60008;50.826;6.896;2022-12-01T05:52:28;38.40;;;12.98;;
72132;SDS011;60008;50.826;6.896;2022-12-01T05:55:13;44.97;;;12.50;;
72132;SDS011;60008;50.826;6.896;2022-12-01T05:57:58;39.13;;;12.23;;
72132;SDS011;60008;50.826;6.896;2022-12-01T06:00:44;40.97;;;12.77;;
72132;SDS011;60008;50.826;6.896;2022-12-01T06:03:30;45.03;;;13.63;;
72132;SDS011;60008;50.826;6.896;2022-12-01T06:06:14;43.20;;;13.05;;
72132;SDS011;60008;50.826;6.896;2022-12-01T06:08:59;39.88;;;13.10;;
72132;SDS011;60008;50.826;6.896;2022-12-01T06:11:45;34.00;;;11.05;;
72132;SDS011;60008;50.826;6.896;2022-12-01T06:14:35;37.85;;;12.15;;
72132;SDS011;60008;50.826;6.896;2022-12-01T06:17:21;38.13;;;12.17;;
72132;SDS011;60008;50.826;6.896;2022-12-01T06:20:06;33.42;;;11.07;;
72132;SDS011;60008;50.826;6.896;2022-12-01T06:22:52;34.38;;;11.13;;
72132;SDS011;60008;50.826;6.896;2022-12-01T06:25:37;32.78;;;11.48;;
72132;SDS011;60008;50.826;6.896;2022-12-01T06:28:22;31.17;;;11.48;;
72132;SDS011;60008;50.826;6.896;2022-12-01T06:31:07;38.27;;;12.27;;
72132;SDS011;60008;50.826;6.896;2022-12-01T06:33:52;36.17;;;12.25;;
72132;SDS011;60008;50.826;6.896;2022-12-01T06:36:37;36.25;;;11.82;;
72132;SDS011;60008;50.826;6.896;2022-12-01T06:39:22;35.53;;;11.15;;
72132;SDS011;60008;50.826;6.896;2022-12-01T06:42:07;32.15;;;10.70;;
72132;SDS011;60008;50.826;6.896;2022-12-01T06:44:53;29.63;;;10.57;;
72132;SDS011;60008;50.826;6.896;2022-12-01T06:47:38;31.42;;;11.77;;
72132;SDS011;60008;50.826;6.896;2022-12-01T06:50:23;35.20;;;11.10;;
72132;SDS011;60008;50.826;6.896;2022-12-01T06:53:09;31.33;;;10.45;;
72132;SDS011;60008;50.826;6.896;2022-12-01T06:55:58;32.95;;;11.55;;
72132;SDS011;60008;50.826;6.896;2022-12-01T06:58:48;37.20;;;11.53;;
72132;SDS011;60008;50.826;6.896;2022-12-01T07:01:34;32.92;;;10.85;;
72132;SDS011;60008;50.826;6.896;2022-12-01T07:04:19;30.67;;;10.57;;
72132;SDS011;60008;50.826;6.896;2022-12-01T07:07:04;26.40;;;9.77;;
72132;SDS011;60008;50.826;6.896;2022-12-01T07:09:50;28.88;;;10.52;;
72132;SDS011;60008;50.826;6.896;2022-12-01T07:12:35;30.87;;;10.13;;
72132;SDS011;60008;50.826;6.896;2022-12-01T07:15:21;35.35;;;10.95;;
72132;SDS011;60008;50.826;6.896;2022-12-01T07:18:07;27.33;;;10.05;;
72132;SDS011;60008;50.826;6.896;2022-12-01T07:20:52;34.47;;;10.65;;
72132;SDS011;60008;50.826;6.896;2022-12-01T07:23:37;33.17;;;11.02;;
72132;SDS011;60008;50.826;6.896;2022-12-01T07:26:22;25.83;;;9.77;;
72132;SDS011;60008;50.826;6.896;2022-12-01T07:29:08;26.42;;;9.23;;
72132;SDS011;60008;50.826;6.896;2022-12-01T07:31:54;31.55;;;10.98;;
72132;SDS011;60008;50.826;6.896;2022-12-01T07:34:39;25.15;;;8.20;;
72132;SDS011;60008;50.826;6.896;2022-12-01T07:37:24;28.52;;;9.88;;
72132;SDS011;60008;50.826;6.896;2022-12-01T07:40:09;29.87;;;9.63;;
72132;SDS011;60008;50.826;6.896;2022-12-01T07:42:55;29.63;;;9.60;;
72132;SDS011;60008;50.826;6.896;2022-12-01T07:45:40;30.67;;;9.90;;
72132;SDS011;60008;50.826;6.896;2022-12-01T07:48:25;25.13;;;9.40;;
72132;SDS011;60008;50.826;6.896;2022-12-01T07:51:11;29.60;;;8.77;;
72132;SDS011;60008;50.826;6.896;2022-12-01T07:54:02;24.03;;;8.07;;
72132;SDS011;60008;50.826;6.896;2022-12-01T07:56:48;29.25;;;9.70;;
72132;SDS011;60008;50.826;6.896;2022-12-01T07:59:34;29.15;;;10.45;;
72132;SDS011;60008;50.826;6.896;2022-12-01T08:02:18;27.90;;;10.90;;
72132;SDS011;60008;50.826;6.896;2022-12-01T08:05:04;28.50;;;9.93;;
72132;SDS011;60008;50.826;6.896;2022-12-01T08:07:49;28.73;;;10.00;;
72132;SDS011;60008;50.826;6.896;2022-12-01T08:10:37;28.75;;;10.77;;
72132;SDS011;60008;50.826;6.896;2022-12-01T08:13:22;24.35;;;9.35;;
72132;SDS011;60008;50.826;6.896;2022-12-01T08:16:08;29.10;;;10.50;;
72132;SDS011;60008;50.826;6.896;2022-12-01T08:18:54;30.02;;;10.18;;
72132;SDS011;60008;50.826;6.896;2022-12-01T08:21:39;28.13;;;10.07;;
72132;SDS011;60008;50.826;6.896;2022-12-01T08:24:24;27.92;;;9.45;;
72132;SDS011;60008;50.826;6.896;2022-12-01T08:27:09;27.23;;;9.13;;
72132;SDS011;60008;50.826;6.896;2022-12-01T08:29:55;27.55;;;9.65;;
72132;SDS011;60008;50.826;6.896;2022-12-01T08:32:40;27.05;;;8.98;;
72132;SDS011;60008;50.826;6.896;2022-12-01T08:35:25;27.80;;;10.27;;
72132;SDS011;60008;50.826;6.896;2022-12-01T08:38:10;25.25;;;9.05;;
72132;SDS011;60008;50.826;6.896;2022-12-01T08:41:03;29.80;;;10.70;;
72132;SDS011;60008;50.826;6.896;2022-12-01T08:43:50;25.80;;;9.25;;
72132;SDS011;60008;50.826;6.896;2022-12-01T08:46:44;25.60;;;9.30;;
72132;SDS011;60008;50.826;6.896;2022-12-01T08:49:29;30.00;;;9.80;;
72132;SDS011;60008;50.826;6.896;2022-12-01T08:52:14;26.00;;;9.30;;
72132;SDS011;60008;50.826;6.896;2022-12-01T08:54:59;23.45;;;9.60;;
72132;SDS011;60008;50.826;6.896;2022-12-01T08:57:44;26.88;;;9.43;;
72132;SDS011;60008;50.826;6.896;2022-12-01T09:00:29;29.10;;;9.32;;
72132;SDS011;60008;50.826;6.896;2022-12-01T09:03:14;28.33;;;9.77;;
72132;SDS011;60008;50.826;6.896;2022-12-01T09:06:03;22.30;;;8.38;;
72132;SDS011;60008;50.826;6.896;2022-12-01T09:08:50;28.52;;;11.13;;
72132;SDS011;60008;50.826;6.896;2022-12-01T09:11:36;31.02;;;10.18;;
72132;SDS011;60008;50.826;6.896;2022-12-01T09:14:21;26.33;;;9.65;;
72132;SDS011;60008;50.826;6.896;2022-12-01T09:17:07;24.80;;;10.30;;
72132;SDS011;60008;50.826;6.896;2022-12-01T09:19:52;27.40;;;10.18;;
72132;SDS011;60008;50.826;6.896;2022-12-01T09:22:37;26.10;;;9.73;;
72132;SDS011;60008;50.826;6.896;2022-12-01T09:25:23;26.63;;;9.57;;
72132;SDS011;60008;50.826;6.896;2022-12-01T09:28:09;23.73;;;9.55;;
72132;SDS011;60008;50.826;6.896;2022-12-01T09:30:54;31.97;;;9.87;;
72132;SDS011;60008;50.826;6.896;2022-12-01T09:33:39;21.67;;;8.60;;
72132;SDS011;60008;50.826;6.896;2022-12-01T09:36:25;26.40;;;8.85;;
72132;SDS011;60008;50.826;6.896;2022-12-01T09:39:16;24.27;;;7.95;;
72132;SDS011;60008;50.826;6.896;2022-12-01T09:42:04;19.00;;;7.88;;
72132;SDS011;60008;50.826;6.896;2022-12-01T09:44:56;19.83;;;7.47;;
72132;SDS011;60008;50.826;6.896;2022-12-01T09:47:45;20.23;;;8.07;;
72132;SDS011;60008;50.826;6.896;2022-12-01T09:50:30;20.85;;;8.52;;
72132;SDS011;60008;50.826;6.896;2022-12-01T09:53:17;24.85;;;9.10;;
72132;SDS011;60008;50.826;6.896;2022-12-01T09:56:05;24.20;;;8.98;;
72132;SDS011;60008;50.826;6.896;2022-12-01T09:58:58;27.47;;;8.83;;
72132;SDS011;60008;50.826;6.896;2022-12-01T10:01:45;24.08;;;8.60;;
72132;SDS011;60008;50.826;6.896;2022-12-01T10:04:35;22.10;;;8.65;;
72132;SDS011;60008;50.826;6.896;2022-12-01T10:10:31;24.65;;;9.77;;
72132;SDS011;60008;50.826;6.896;2022-12-01T10:13:21;24.50;;;9.77;;
72132;SDS011;60008;50.826;6.896;2022-12-01T10:16:08;28.73;;;9.05;;
72132;SDS011;60008;50.826;6.896;2022-12-01T10:19:04;23.00;;;8.93;;
72132;SDS011;60008;50.826;6.896;2022-12-01T10:25:23;25.55;;;9.30;;
72132;SDS011;60008;50.826;6.896;2022-12-01T10:31:30;24.92;;;9.23;;
72132;SDS011;60008;50.826;6.896;2022-12-01T10:34:22;19.05;;;7.18;;
72132;SDS011;60008;50.826;6.896;2022-12-01T10:37:28;22.98;;;8.65;;
72132;SDS011;60008;50.826;6.896;2022-12-01T10:40:14;22.85;;;8.15;;
72132;SDS011;60008;50.826;6.896;2022-12-01T10:43:01;21.70;;;8.37;;
72132;SDS011;60008;50.826;6.896;2022-12-01T10:45:46;22.02;;;8.35;;
72132;SDS011;60008;50.826;6.896;2022-12-01T10:48:31;24.20;;;8.35;;
72132;SDS011;60008;50.826;6.896;2022-12-01T10:51:16;23.08;;;8.57;;
72132;SDS011;60008;50.826;6.896;2022-12-01T10:54:06;20.60;;;8.10;;
72132;SDS011;60008;50.826;6.896;2022-12-01T10:56:55;21.13;;;7.37;;
72132;SDS011;60008;50.826;6.896;2022-12-01T10:59:55;20.38;;;8.32;;
72132;SDS011;60008;50.826;6.896;2022-12-01T11:02:43;17.20;;;7.10;;
72132;SDS011;60008;50.826;6.896;2022-12-01T11:05:30;18.90;;;7.80;;
72132;SDS011;60008;50.826;6.896;2022-12-01T11:08:22;18.73;;;8.00;;
72132;SDS011;60008;50.826;6.896;2022-12-01T11:14:21;15.10;;;6.07;;
72132;SDS011;60008;50.826;6.896;2022-12-01T11:17:27;14.75;;;6.07;;
72132;SDS011;60008;50.826;6.896;2022-12-01T11:20:24;14.35;;;5.40;;
72132;SDS011;60008;50.826;6.896;2022-12-01T11:29:02;10.95;;;4.55;;
72132;SDS011;60008;50.826;6.896;2022-12-01T11:31:50;10.18;;;4.00;;
72132;SDS011;60008;50.826;6.896;2022-12-01T11:34:36;10.50;;;4.47;;
72132;SDS011;60008;50.826;6.896;2022-12-01T11:37:23;10.52;;;4.63;;
72132;SDS011;60008;50.826;6.896;2022-12-01T11:40:21;9.57;;;4.50;;
72132;SDS011;60008;50.826;6.896;2022-12-01T11:43:14;10.70;;;4.60;;
72132;SDS011;60008;50.826;6.896;2022-12-01T11:46:06;9.68;;;3.92;;
72132;SDS011;60008;50.826;6.896;2022-12-01T11:48:56;9.90;;;4.03;;
72132;SDS011;60008;50.826;6.896;2022-12-01T11:51:42;9.50;;;4.15;;
72132;SDS011;60008;50.826;6.896;2022-12-01T11:54:27;9.83;;;4.63;;
72132;SDS011;60008;50.826;6.896;2022-12-01T11:57:12;12.52;;;4.40;;
72132;SDS011;60008;50.826;6.896;2022-12-01T12:00:18;11.25;;;4.78;;
72132;SDS011;60008;50.826;6.896;2022-12-01T12:06:20;10.27;;;4.50;;
72132;SDS011;60008;50.826;6.896;2022-12-01T12:09:30;9.23;;;4.20;;
72132;SDS011;60008;50.826;6.896;2022-12-01T12:12:28;10.85;;;4.60;;
72132;SDS011;60008;50.826;6.896;2022-12-01T12:24:22;16.17;;;5.97;;
72132;SDS011;60008;50.826;6.896;2022-12-01T12:30:27;14.90;;;6.53;;
72132;SDS011;60008;50.826;6.896;2022-12-01T12:36:09;17.15;;;6.05;;
72132;SDS011;60008;50.826;6.896;2022-12-01T12:39:22;18.73;;;6.97;;
72132;SDS011;60008;50.826;6.896;2022-12-01T12:58:31;19.73;;;6.68;;
72132;SDS011;60008;50.826;6.896;2022-12-01T13:01:27;23.10;;;8.45;;
72132;SDS011;60008;50.826;6.896;2022-12-01T13:04:20;15.95;;;7.15;;
72132;SDS011;60008;50.826;6.896;2022-12-01T13:10:20;22.03;;;9.00;;
72132;SDS011;60008;50.826;6.896;2022-12-01T13:13:22;18.20;;;7.30;;
72132;SDS011;60008;50.826;6.896;2022-12-01T13:16:16;19.63;;;7.35;;
72132;SDS011;60008;50.826;6.896;2022-12-01T13:22:25;19.75;;;7.68;;
72132;SDS011;60008;50.826;6.896;2022-12-01T13:25:28;25.53;;;8.10;;
72132;SDS011;60008;50.826;6.896;2022-12-01T13:28:19;20.92;;;8.15;;
72132;SDS011;60008;50.826;6.896;2022-12-01T13:31:08;18.15;;;7.90;;
72132;SDS011;60008;50.826;6.896;2022-12-01T13:33:57;22.92;;;7.97;;
72132;SDS011;60008;50.826;6.896;2022-12-01T13:36:50;21.90;;;7.82;;
72132;SDS011;60008;50.826;6.896;2022-12-01T13:39:40;22.40;;;8.30;;
72132;SDS011;60008;50.826;6.896;2022-12-01T13:42:25;22.90;;;8.10;;
72132;SDS011;60008;50.826;6.896;2022-12-01T13:45:16;24.15;;;9.75;;
72132;SDS011;60008;50.826;6.896;2022-12-01T13:48:03;25.33;;;8.20;;
72132;SDS011;60008;50.826;6.896;2022-12-01T13:50:59;25.30;;;8.82;;
72132;SDS011;60008;50.826;6.896;2022-12-01T13:53:54;24.00;;;9.00;;
72132;SDS011;60008;50.826;6.896;2022-12-01T13:56:45;23.17;;;9.02;;
72132;SDS011;60008;50.826;6.896;2022-12-01T14:02:42;23.63;;;8.68;;
72132;SDS011;60008;50.826;6.896;2022-12-01T14:05:44;24.45;;;8.93;;
72132;SDS011;60008;50.826;6.896;2022-12-01T14:08:46;20.23;;;8.77;;
72132;SDS011;60008;50.826;6.896;2022-12-01T14:11:33;25.05;;;9.00;;
72132;SDS011;60008;50.826;6.896;2022-12-01T14:14:19;24.52;;;9.30;;
72132;SDS011;60008;50.826;6.896;2022-12-01T14:20:30;24.38;;;8.75;;
72132;SDS011;60008;50.826;6.896;2022-12-01T14:26:15;23.55;;;8.82;;
72132;SDS011;60008;50.826;6.896;2022-12-01T14:34:36;23.23;;;9.00;;
72132;SDS011;60008;50.826;6.896;2022-12-01T14:37:23;23.63;;;9.50;;
72132;SDS011;60008;50.826;6.896;2022-12-01T14:40:16;24.05;;;9.40;;
72132;SDS011;60008;50.826;6.896;2022-12-01T14:43:05;24.58;;;10.40;;
72132;SDS011;60008;50.826;6.896;2022-12-01T14:46:15;24.90;;;8.93;;
72132;SDS011;60008;50.826;6.896;2022-12-01T14:49:09;24.08;;;8.15;;
72132;SDS011;60008;50.826;6.896;2022-12-01T14:51:59;29.40;;;10.60;;
72132;SDS011;60008;50.826;6.896;2022-12-01T14:54:50;25.98;;;9.43;;
72132;SDS011;60008;50.826;6.896;2022-12-01T14:57:39;26.55;;;10.25;;
72132;SDS011;60008;50.826;6.896;2022-12-01T15:00:29;30.25;;;10.80;;
72132;SDS011;60008;50.826;6.896;2022-12-01T15:03:15;29.40;;;12.02;;
72132;SDS011;60008;50.826;6.896;2022-12-01T15:06:00;25.90;;;10.57;;
72132;SDS011;60008;50.826;6.896;2022-12-01T15:08:45;23.98;;;10.07;;
72132;SDS011;60008;50.826;6.896;2022-12-01T15:14:47;24.00;;;9.98;;
72132;SDS011;60008;50.826;6.896;2022-12-01T15:17:34;25.50;;;8.95;;
72132;SDS011;60008;50.826;6.896;2022-12-01T15:20:27;26.90;;;10.57;;
72132;SDS011;60008;50.826;6.896;2022-12-01T15:23:18;24.20;;;9.10;;
72132;SDS011;60008;50.826;6.896;2022-12-01T15:26:03;23.33;;;10.00;;
72132;SDS011;60008;50.826;6.896;2022-12-01T15:28:48;25.73;;;9.43;;
72132;SDS011;60008;50.826;6.896;2022-12-01T15:31:33;23.88;;;9.57;;
72132;SDS011;60008;50.826;6.896;2022-12-01T15:34:21;23.77;;;9.67;;
72132;SDS011;60008;50.826;6.896;2022-12-01T15:37:10;25.75;;;10.68;;
72132;SDS011;60008;50.826;6.896;2022-12-01T15:39:58;23.63;;;9.57;;
72132;SDS011;60008;50.826;6.896;2022-12-01T15:43:16;25.20;;;9.98;;
72132;SDS011;60008;50.826;6.896;2022-12-01T15:46:13;25.85;;;10.63;;
72132;SDS011;60008;50.826;6.896;2022-12-01T15:49:06;24.77;;;10.40;;
72132;SDS011;60008;50.826;6.896;2022-12-01T15:51:52;31.75;;;11.38;;
72132;SDS011;60008;50.826;6.896;2022-12-01T15:54:40;28.27;;;10.65;;
72132;SDS011;60008;50.826;6.896;2022-12-01T15:57:32;25.17;;;9.98;;
72132;SDS011;60008;50.826;6.896;2022-12-01T16:00:18;24.13;;;9.82;;
72132;SDS011;60008;50.826;6.896;2022-12-01T16:03:04;24.00;;;9.20;;
72132;SDS011;60008;50.826;6.896;2022-12-01T16:05:49;27.17;;;9.13;;
72132;SDS011;60008;50.826;6.896;2022-12-01T16:08:35;22.52;;;8.95;;
72132;SDS011;60008;50.826;6.896;2022-12-01T16:11:19;19.25;;;8.32;;
72132;SDS011;60008;50.826;6.896;2022-12-01T16:17:03;20.97;;;8.47;;
72132;SDS011;60008;50.826;6.896;2022-12-01T16:19:48;18.75;;;7.05;;
72132;SDS011;60008;50.826;6.896;2022-12-01T16:23:02;17.95;;;7.80;;
72132;SDS011;60008;50.826;6.896;2022-12-01T16:25:53;21.55;;;8.75;;
72132;SDS011;60008;50.826;6.896;2022-12-01T16:28:45;20.35;;;7.85;;
72132;SDS011;60008;50.826;6.896;2022-12-01T16:31:30;19.57;;;7.60;;
72132;SDS011;60008;50.826;6.896;2022-12-01T16:34:18;16.52;;;7.47;;
72132;SDS011;60008;50.826;6.896;2022-12-01T16:37:25;22.20;;;8.07;;
72132;SDS011;60008;50.826;6.896;2022-12-01T16:40:12;19.90;;;8.40;;
72132;SDS011;60008;50.826;6.896;2022-12-01T16:42:57;19.20;;;7.63;;
72132;SDS011;60008;50.826;6.896;2022-12-01T16:45:43;20.00;;;8.43;;
72132;SDS011;60008;50.826;6.896;2022-12-01T16:48:29;17.80;;;7.18;;
72132;SDS011;60008;50.826;6.896;2022-12-01T16:51:15;25.08;;;9.50;;
72132;SDS011;60008;50.826;6.896;2022-12-01T16:54:08;17.05;;;7.82;;
72132;SDS011;60008;50.826;6.896;2022-12-01T16:56:54;20.63;;;9.43;;
72132;SDS011;60008;50.826;6.896;2022-12-01T16:59:38;22.37;;;9.47;;
72132;SDS011;60008;50.826;6.896;2022-12-01T17:02:24;26.98;;;10.90;;
72132;SDS011;60008;50.826;6.896;2022-12-01T17:05:09;25.45;;;10.20;;
72132;SDS011;60008;50.826;6.896;2022-12-01T17:07:55;24.77;;;10.02;;
72132;SDS011;60008;50.826;6.896;2022-12-01T17:10:43;24.15;;;10.68;;
72132;SDS011;60008;50.826;6.896;2022-12-01T17:13:30;27.20;;;11.53;;
72132;SDS011;60008;50.826;6.896;2022-12-01T17:16:15;27.23;;;10.77;;
72132;SDS011;60008;50.826;6.896;2022-12-01T17:19:02;30.77;;;13.20;;
72132;SDS011;60008;50.826;6.896;2022-12-01T17:21:48;33.92;;;14.27;;
72132;SDS011;60008;50.826;6.896;2022-12-01T17:24:33;38.67;;;16.50;;
72132;SDS011;60008;50.826;6.896;2022-12-01T17:27:18;30.53;;;13.27;;
72132;SDS011;60008;50.826;6.896;2022-12-01T17:30:03;35.55;;;13.05;;
72132;SDS011;60008;50.826;6.896;2022-12-01T17:32:49;26.55;;;10.63;;
72132;SDS011;60008;50.826;6.896;2022-12-01T17:35:36;29.30;;;11.05;;
72132;SDS011;60008;50.826;6.896;2022-12-01T17:38:22;28.00;;;11.40;;
72132;SDS011;60008;50.826;6.896;2022-12-01T17:41:10;26.67;;;10.87;;
72132;SDS011;60008;50.826;6.896;2022-12-01T17:44:00;30.45;;;12.30;;
72132;SDS011;60008;50.826;6.896;2022-12-01T17:46:45;37.67;;;13.75;;
72132;SDS011;60008;50.826;6.896;2022-12-01T17:49:30;33.15;;;12.90;;
72132;SDS011;60008;50.826;6.896;2022-12-01T17:52:15;27.45;;;10.93;;
72132;SDS011;60008;50.826;6.896;2022-12-01T17:55:01;27.13;;;11.40;;
72132;SDS011;60008;50.826;6.896;2022-12-01T17:57:46;29.10;;;11.25;;
72132;SDS011;60008;50.826;6.896;2022-12-01T18:00:31;27.23;;;11.02;;
72132;SDS011;60008;50.826;6.896;2022-12-01T18:03:16;29.45;;;11.27;;
72132;SDS011;60008;50.826;6.896;2022-12-01T18:06:01;27.92;;;10.70;;
72132;SDS011;60008;50.826;6.896;2022-12-01T18:08:47;25.43;;;11.70;;
72132;SDS011;60008;50.826;6.896;2022-12-01T18:11:32;27.08;;;12.10;;